Time;durP1;ratioP1;P1;durP2;ratioP2;P2;SDS_P1;SDS_P2;PMS_P1;PMS_P2;Temp;Humidity;BMP_temperature;BMP_pressure;BME280_temperature;BME280_humidity;BME280_pressure;Samples;Min_cycle;Max_cycle;Signal;HPM_P1;HPM_P2
2023/03/03 00:02:05;;;;;;;28.77;14.10;;;1.60;99.90;;;;;;5089881;28;20383;-50
2023/03/03 00:04:30;;;;;;;28.15;13.70;;;1.60;99.90;;;;;;5115437;27;20482;-48
2023/03/03 00:06:56;;;;;;;29.20;12.75;;;1.60;99.90;;;;;;5090535;28;20059;-49
2023/03/03 00:09:22;;;;;;;28.33;13.18;;;1.60;99.90;;;;;;5117079;27;20039;-48
2023/03/03 00:11:54;;;;;;;32.20;14.05;;;1.60;99.90;;;;;;5128629;27;20536;-49
2023/03/03 00:14:29;;;;;;;30.05;13.48;;;1.60;99.90;;;;;;5109456;27;20169;-46
2023/03/03 00:16:56;;;;;;;30.23;13.02;;;1.60;99.90;;;;;;5122878;27;20103;-52
2023/03/03 00:19:22;;;;;;;30.08;13.02;;;1.60;99.90;;;;;;5129045;27;20039;-49
2023/03/03 00:21:55;;;;;;;30.95;13.45;;;1.60;99.90;;;;;;5130578;27;20155;-48
2023/03/03 00:24:36;;;;;;;32.30;12.88;;;1.60;99.90;;;;;;5130113;27;20433;-52
2023/03/03 00:27:16;;;;;;;28.70;12.65;;;1.60;99.90;;;;;;5129320;27;20043;-48
2023/03/03 00:29:54;;;;;;;30.58;13.63;;;1.60;99.90;;;;;;5129241;27;20019;-49
2023/03/03 00:32:36;;;;;;;29.02;12.45;;;1.60;99.90;;;;;;5126721;27;20053;-50
2023/03/03 00:35:34;;;;;;;28.40;13.20;;;2.00;99.90;;;;;;5097942;28;20123;-48
2023/03/03 00:38:09;;;;;;;30.02;12.32;;;1.60;99.90;;;;;;5128757;27;20049;-51
2023/03/03 00:40:39;;;;;;;29.27;12.60;;;1.60;99.90;;;;;;5130282;27;20186;-49
2023/03/03 00:43:19;;;;;;;26.73;12.43;;;1.60;99.90;;;;;;5129761;27;20043;-48
2023/03/03 00:45:51;;;;;;;27.73;12.68;;;1.60;99.90;;;;;;5129298;27;20491;-48
2023/03/03 00:48:28;;;;;;;25.55;11.35;;;1.70;99.90;;;;;;5130996;27;20095;-49
2023/03/03 00:50:59;;;;;;;29.38;12.63;;;1.70;99.90;;;;;;5130087;27;20087;-47
2023/03/03 00:53:28;;;;;;;30.48;12.63;;;1.70;99.90;;;;;;5129735;28;20032;-48
2023/03/03 00:55:54;;;;;;;28.38;12.45;;;1.70;99.90;;;;;;5129498;28;20043;-49
2023/03/03 00:58:21;;;;;;;29.48;13.07;;;1.70;99.90;;;;;;5126409;28;20047;-52
2023/03/03 01:00:55;;;;;;;33.08;14.15;;;1.70;99.90;;;;;;5130598;28;20042;-50
2023/03/03 01:03:23;;;;;;;29.35;12.90;;;1.70;99.90;;;;;;5128824;28;20028;-48
2023/03/03 01:05:50;;;;;;;30.05;12.98;;;1.80;99.90;;;;;;5130178;28;20059;-51
2023/03/03 01:08:16;;;;;;;31.35;13.75;;;1.80;99.90;;;;;;5119046;28;20039;-49
2023/03/03 01:10:51;;;;;;;30.05;12.60;;;1.80;99.90;;;;;;5129742;28;20035;-49
2023/03/03 01:13:19;;;;;;;31.20;13.05;;;1.80;99.90;;;;;;5125797;28;20076;-50
2023/03/03 01:15:45;;;;;;;29.83;12.98;;;1.80;99.90;;;;;;5130302;28;20039;-51
2023/03/03 01:18:11;;;;;;;30.17;12.93;;;1.90;99.90;;;;;;5128272;28;20031;-48
2023/03/03 01:20:38;;;;;;;32.25;13.70;;;1.80;99.90;;;;;;5130585;28;20057;-49
2023/03/03 01:23:03;;;;;;;27.45;12.88;;;1.80;99.90;;;;;;5099968;28;20076;-51
2023/03/03 01:25:30;;;;;;;28.92;13.32;;;1.80;99.90;;;;;;5087541;28;20141;-48
2023/03/03 01:27:56;;;;;;;29.17;12.27;;;1.80;99.90;;;;;;5099166;28;20059;-51
2023/03/03 01:30:24;;;;;;;30.00;13.10;;;1.80;99.90;;;;;;5100084;28;20038;-49
2023/03/03 01:32:49;;;;;;;29.73;13.52;;;1.70;99.90;;;;;;5099112;28;20040;-49
2023/03/03 01:35:15;;;;;;;33.30;13.13;;;1.80;99.90;;;;;;5099977;28;20035;-50
2023/03/03 01:37:41;;;;;;;31.55;14.13;;;1.70;99.90;;;;;;5102474;28;20443;-49
2023/03/03 01:40:13;;;;;;;30.23;12.55;;;1.80;99.90;;;;;;5100660;27;20066;-48
2023/03/03 01:42:39;;;;;;;31.88;13.02;;;1.70;99.90;;;;;;5106670;27;20048;-48
2023/03/03 01:45:15;;;;;;;30.10;12.63;;;1.80;99.90;;;;;;5101846;27;20046;-47
2023/03/03 01:47:50;;;;;;;30.73;12.40;;;1.80;99.90;;;;;;5105810;27;20035;-50
2023/03/03 01:50:27;;;;;;;29.15;11.93;;;1.80;99.90;;;;;;5103253;27;20024;-49
2023/03/03 01:52:54;;;;;;;32.05;11.38;;;1.90;99.90;;;;;;5104363;27;20027;-50
2023/03/03 01:55:24;;;;;;;31.40;12.57;;;1.90;99.90;;;;;;5100853;27;20031;-51
2023/03/03 01:57:58;;;;;;;30.67;11.77;;;1.90;99.90;;;;;;5101709;27;20067;-50
2023/03/03 02:00:24;;;;;;;34.97;13.10;;;1.90;99.90;;;;;;5106321;27;20397;-51
2023/03/03 02:02:51;;;;;;;33.97;11.85;;;1.90;99.90;;;;;;5104414;27;20522;-49
2023/03/03 02:05:17;;;;;;;30.45;11.75;;;1.90;99.90;;;;;;5100549;27;20066;-49
2023/03/03 02:07:43;;;;;;;31.77;12.57;;;1.90;99.90;;;;;;5104287;27;20048;-48
2023/03/03 02:10:15;;;;;;;30.67;11.40;;;2.30;99.90;;;;;;5105084;27;20024;-52
2023/03/03 02:12:46;;;;;;;32.60;11.25;;;1.90;99.90;;;;;;5118715;27;20035;-49
2023/03/03 02:15:34;;;;;;;27.33;11.60;;;1.90;99.90;;;;;;5109979;27;20503;-48
2023/03/03 02:18:04;;;;;;;31.80;10.90;;;2.10;99.90;;;;;;5131770;27;20031;-48
2023/03/03 02:20:46;;;;;;;31.92;11.45;;;1.90;99.90;;;;;;5100806;28;20066;-48
2023/03/03 02:23:37;;;;;;;29.80;11.45;;;1.90;99.90;;;;;;5130575;27;20042;-51
2023/03/03 02:26:16;;;;;;;37.08;11.88;;;1.90;99.90;;;;;;5131895;27;20120;-49
2023/03/03 02:28:42;;;;;;;31.55;11.40;;;1.90;99.90;;;;;;5099898;28;20054;-50
2023/03/03 02:31:14;;;;;;;33.53;10.45;;;1.90;99.90;;;;;;5130566;27;20041;-50
2023/03/03 02:33:46;;;;;;;37.67;12.32;;;1.90;99.90;;;;;;5133015;27;20042;-49
2023/03/03 02:36:17;;;;;;;34.28;11.55;;;1.90;99.90;;;;;;5126355;27;20115;-49
2023/03/03 02:38:42;;;;;;;30.88;11.38;;;2.30;99.90;;;;;;5120573;27;20204;-48
2023/03/03 02:41:27;;;;;;;36.97;12.10;;;2.50;99.90;;;;;;5132569;27;20569;-49
2023/03/03 02:44:14;;;;;;;35.05;11.35;;;1.90;99.90;;;;;;5132026;27;20085;-49
2023/03/03 02:46:43;;;;;;;35.45;12.13;;;1.90;99.90;;;;;;5133739;27;20126;-52
2023/03/03 02:49:12;;;;;;;31.77;10.63;;;1.90;99.90;;;;;;5107870;28;20610;-49
2023/03/03 02:51:38;;;;;;;35.42;12.23;;;2.00;99.90;;;;;;5119168;27;20031;-49
2023/03/03 02:54:05;;;;;;;36.30;11.45;;;2.10;99.90;;;;;;5132070;27;20378;-49
2023/03/03 02:56:31;;;;;;;36.10;11.98;;;1.90;99.90;;;;;;5130616;27;20039;-49
2023/03/03 02:58:57;;;;;;;35.38;10.98;;;1.90;99.90;;;;;;5132198;27;20046;-49
2023/03/03 03:01:23;;;;;;;41.63;12.10;;;1.90;99.90;;;;;;5133792;27;20027;-49
2023/03/03 03:03:48;;;;;;;36.03;11.68;;;1.90;99.90;;;;;;5133311;27;20074;-47
2023/03/03 03:06:14;;;;;;;33.95;12.05;;;1.90;99.90;;;;;;5130397;27;20048;-49
2023/03/03 03:08:40;;;;;;;39.05;12.48;;;1.90;99.90;;;;;;5132332;27;20031;-49
2023/03/03 03:11:06;;;;;;;41.00;11.90;;;1.90;99.90;;;;;;5130945;27;20066;-51
2023/03/03 03:13:32;;;;;;;41.05;12.50;;;1.90;99.90;;;;;;5131757;27;20031;-50
2023/03/03 03:15:59;;;;;;;39.15;12.00;;;1.90;99.90;;;;;;5115231;27;20042;-51
2023/03/03 03:18:26;;;;;;;45.47;12.43;;;2.00;99.90;;;;;;5131507;27;20039;-47
2023/03/03 03:20:52;;;;;;;35.53;11.77;;;1.90;99.90;;;;;;5131515;27;20042;-50
2023/03/03 03:23:20;;;;;;;38.15;12.43;;;2.00;99.90;;;;;;5112859;27;20479;-48
2023/03/03 03:25:47;;;;;;;41.72;13.25;;;2.00;99.90;;;;;;5130817;27;20047;-50
2023/03/03 03:28:15;;;;;;;41.78;13.82;;;2.00;99.90;;;;;;5130788;27;20045;-51
2023/03/03 03:30:43;;;;;;;38.35;12.20;;;2.10;99.90;;;;;;5130934;27;20470;-48
2023/03/03 03:33:09;;;;;;;39.63;12.50;;;2.00;99.90;;;;;;5129792;27;20035;-51
2023/03/03 03:35:35;;;;;;;30.40;9.80;;;2.00;99.90;;;;;;5131715;27;20031;-48
2023/03/03 03:38:01;;;;;;;29.77;10.68;;;2.10;99.90;;;;;;5130598;27;20111;-46
2023/03/03 03:40:27;;;;;;;28.42;10.82;;;2.00;99.90;;;;;;5131478;27;20402;-48
2023/03/03 03:42:53;;;;;;;37.05;10.40;;;2.10;99.90;;;;;;5130290;27;20039;-49
2023/03/03 03:45:19;;;;;;;30.58;9.95;;;1.90;99.90;;;;;;5130764;27;20438;-49
2023/03/03 03:47:45;;;;;;;36.50;10.60;;;2.00;99.90;;;;;;5095641;28;20035;-49
2023/03/03 03:50:11;;;;;;;36.55;11.70;;;1.90;99.90;;;;;;5105232;27;20023;-51
2023/03/03 03:52:36;;;;;;;34.22;10.48;;;2.00;99.90;;;;;;5131130;27;20035;-50
2023/03/03 03:55:03;;;;;;;35.95;10.27;;;2.00;99.90;;;;;;5103809;28;20513;-48
2023/03/03 03:57:28;;;;;;;29.67;10.32;;;2.10;99.90;;;;;;5117394;27;20075;-49
2023/03/03 03:59:54;;;;;;;34.78;10.35;;;2.00;99.90;;;;;;5132254;27;20082;-51
2023/03/03 04:02:20;;;;;;;32.65;10.60;;;2.10;99.90;;;;;;5113555;27;20042;-49
2023/03/03 04:04:46;;;;;;;40.33;11.20;;;2.30;99.90;;;;;;5131435;27;20067;-51
2023/03/03 04:07:12;;;;;;;36.50;10.48;;;2.00;99.90;;;;;;5130495;27;20039;-47
2023/03/03 04:09:37;;;;;;;30.42;9.85;;;2.10;99.90;;;;;;5129409;27;20465;-47
2023/03/03 04:12:03;;;;;;;33.28;10.10;;;2.00;99.90;;;;;;5130831;27;20402;-50
2023/03/03 04:14:29;;;;;;;32.15;9.65;;;1.90;99.90;;;;;;5089792;28;20039;-51
2023/03/03 04:16:55;;;;;;;36.40;11.23;;;2.00;99.90;;;;;;5115834;27;20047;-52
2023/03/03 04:19:21;;;;;;;33.28;9.93;;;2.00;99.90;;;;;;5130118;27;20023;-47
2023/03/03 04:21:47;;;;;;;36.65;10.52;;;2.10;99.90;;;;;;5131203;27;20035;-52
2023/03/03 04:24:13;;;;;;;30.30;10.52;;;2.00;99.90;;;;;;5095537;28;20548;-52
2023/03/03 04:26:38;;;;;;;31.65;9.75;;;2.00;99.90;;;;;;5090979;28;20052;-51
2023/03/03 04:29:04;;;;;;;30.23;9.50;;;2.20;99.90;;;;;;5096522;28;20387;-49
2023/03/03 04:31:30;;;;;;;27.98;9.65;;;2.20;99.90;;;;;;5113862;27;20035;-48
2023/03/03 04:33:56;;;;;;;34.22;9.85;;;2.20;99.90;;;;;;5129918;27;21994;-50
2023/03/03 04:36:22;;;;;;;31.15;10.23;;;2.10;99.90;;;;;;5130785;27;20479;-52
2023/03/03 04:38:48;;;;;;;39.38;10.70;;;2.30;99.90;;;;;;5130554;27;20095;-48
2023/03/03 04:41:14;;;;;;;31.02;10.02;;;2.10;99.90;;;;;;5130550;27;20035;-49
2023/03/03 04:43:40;;;;;;;42.00;10.20;;;2.20;99.90;;;;;;5129196;27;20098;-49
2023/03/03 04:46:06;;;;;;;36.67;9.88;;;2.50;99.90;;;;;;5098182;28;20054;-49
2023/03/03 04:48:32;;;;;;;44.17;10.95;;;2.30;99.90;;;;;;5126653;27;20050;-49
2023/03/03 04:50:57;;;;;;;30.02;9.70;;;2.20;99.90;;;;;;5130856;27;20035;-48
2023/03/03 04:53:23;;;;;;;27.95;10.27;;;2.10;99.90;;;;;;5128125;28;20082;-49
2023/03/03 04:55:50;;;;;;;32.72;10.43;;;2.80;99.90;;;;;;5098076;28;20123;-48
2023/03/03 04:58:18;;;;;;;37.30;10.18;;;2.20;99.90;;;;;;5125694;28;20118;-49
2023/03/03 05:00:45;;;;;;;32.58;10.32;;;2.30;99.90;;;;;;5131602;28;20050;-48
2023/03/03 05:03:11;;;;;;;41.15;10.27;;;2.30;99.90;;;;;;5131531;28;20043;-49
2023/03/03 05:05:37;;;;;;;29.52;10.18;;;2.10;99.90;;;;;;5129902;28;20035;-47
2023/03/03 05:08:03;;;;;;;36.55;9.65;;;2.20;99.90;;;;;;5129810;28;20031;-51
2023/03/03 05:10:29;;;;;;;37.00;10.25;;;2.20;99.90;;;;;;5129345;28;20471;-52
2023/03/03 05:12:55;;;;;;;32.33;9.23;;;2.20;99.90;;;;;;5128640;28;20035;-49
2023/03/03 05:15:20;;;;;;;36.13;9.15;;;2.30;99.90;;;;;;5123558;27;20036;-48
2023/03/03 05:17:46;;;;;;;35.67;9.23;;;2.20;99.90;;;;;;5129271;27;20486;-51
2023/03/03 05:20:12;;;;;;;38.65;9.98;;;2.30;99.90;;;;;;5133647;27;20121;-50
2023/03/03 05:22:38;;;;;;;34.67;9.75;;;2.10;99.90;;;;;;5095498;28;20031;-47
2023/03/03 05:25:04;;;;;;;31.15;9.85;;;2.20;99.90;;;;;;5117161;27;20031;-48
2023/03/03 05:27:30;;;;;;;30.70;9.20;;;2.20;99.90;;;;;;5132060;27;20043;-48
2023/03/03 05:29:56;;;;;;;28.75;9.13;;;2.20;99.90;;;;;;5111566;27;20054;-52
2023/03/03 05:32:22;;;;;;;26.88;9.35;;;2.30;99.90;;;;;;5132625;27;20114;-48
2023/03/03 05:34:47;;;;;;;26.27;9.35;;;2.30;99.90;;;;;;5135406;27;20050;-52
2023/03/03 05:37:14;;;;;;;29.73;9.35;;;2.30;99.90;;;;;;5135377;27;20527;-50
2023/03/03 05:39:40;;;;;;;31.88;9.23;;;2.30;99.90;;;;;;5134143;27;20079;-48
2023/03/03 05:42:05;;;;;;;27.08;9.50;;;2.20;99.90;;;;;;5132783;27;20039;-48
2023/03/03 05:44:31;;;;;;;25.83;8.45;;;2.10;99.90;;;;;;5133142;27;20042;-49
2023/03/03 05:46:57;;;;;;;27.00;9.68;;;2.20;99.90;;;;;;5132410;27;20442;-47
2023/03/03 05:49:24;;;;;;;25.65;9.05;;;2.20;99.90;;;;;;5133857;27;20039;-47
2023/03/03 05:51:50;;;;;;;24.67;10.18;;;2.20;99.90;;;;;;5132413;27;20486;-48
2023/03/03 05:54:16;;;;;;;30.27;9.98;;;2.30;99.90;;;;;;5132549;27;20034;-46
2023/03/03 05:56:41;;;;;;;31.52;9.88;;;2.40;99.90;;;;;;5132195;27;20049;-47
2023/03/03 05:59:07;;;;;;;29.45;9.30;;;2.40;99.90;;;;;;5133940;27;20039;-46
2023/03/03 06:01:33;;;;;;;28.05;9.40;;;2.40;99.90;;;;;;5132385;27;20397;-50
2023/03/03 06:03:58;;;;;;;31.83;9.45;;;2.30;99.90;;;;;;5133238;27;20049;-48
2023/03/03 06:06:24;;;;;;;31.65;9.48;;;2.50;99.90;;;;;;5093403;28;20403;-51
2023/03/03 06:08:52;;;;;;;35.05;10.50;;;2.30;99.90;;;;;;5091590;28;20044;-48
2023/03/03 06:11:18;;;;;;;38.20;10.52;;;2.40;99.90;;;;;;5090493;28;20463;-47
2023/03/03 06:13:44;;;;;;;37.30;10.18;;;2.40;99.90;;;;;;5092333;28;20078;-47
2023/03/03 06:16:09;;;;;;;30.65;10.07;;;2.30;99.90;;;;;;5090775;28;20039;-48
2023/03/03 06:18:35;;;;;;;40.63;10.18;;;2.30;99.90;;;;;;5091898;28;20131;-50
2023/03/03 06:21:01;;;;;;;57.90;10.63;;;2.30;99.90;;;;;;5090031;28;20042;-49
2023/03/03 06:23:27;;;;;;;41.72;10.60;;;2.30;99.90;;;;;;5091488;28;20043;-47
2023/03/03 06:25:52;;;;;;;34.38;9.27;;;2.40;99.90;;;;;;5090202;28;20047;-49
2023/03/03 06:28:18;;;;;;;34.10;9.32;;;2.40;99.90;;;;;;5091893;28;20032;-48
2023/03/03 06:30:44;;;;;;;39.45;10.18;;;2.30;99.90;;;;;;5093097;28;20051;-48
2023/03/03 06:33:10;;;;;;;29.75;9.90;;;2.30;99.90;;;;;;5093133;28;20035;-49
2023/03/03 06:35:36;;;;;;;33.50;9.23;;;2.40;99.90;;;;;;5091300;28;20047;-49
2023/03/03 06:38:01;;;;;;;39.63;10.80;;;2.70;99.90;;;;;;5091962;28;20094;-46
2023/03/03 06:40:27;;;;;;;37.13;9.30;;;2.40;99.90;;;;;;5090391;28;20043;-48
2023/03/03 06:42:53;;;;;;;25.40;8.52;;;2.40;99.90;;;;;;5091432;28;20539;-48
2023/03/03 06:45:18;;;;;;;36.50;9.05;;;3.10;99.90;;;;;;5090486;28;20097;-50
2023/03/03 06:47:44;;;;;;;27.60;8.38;;;2.50;99.90;;;;;;5089251;28;20028;-49
2023/03/03 06:50:11;;;;;;;27.65;9.00;;;2.40;99.90;;;;;;5090786;28;20135;-48
2023/03/03 06:52:37;;;;;;;29.55;9.77;;;2.50;99.90;;;;;;5091566;28;20467;-46
2023/03/03 06:55:11;;;;;;;40.67;9.88;;;2.50;99.90;;;;;;5090651;28;20071;-48
2023/03/03 06:57:37;;;;;;;36.72;9.82;;;2.50;99.90;;;;;;5090789;28;20036;-48
2023/03/03 07:00:21;;;;;;;40.42;10.02;;;2.40;99.90;;;;;;5090933;28;20036;-50
2023/03/03 07:02:57;;;;;;;31.23;10.45;;;2.40;99.90;;;;;;5092027;28;20040;-47
2023/03/03 07:05:24;;;;;;;39.15;9.73;;;2.40;99.90;;;;;;5090517;28;20043;-49
2023/03/03 07:07:50;;;;;;;32.78;11.23;;;2.40;99.90;;;;;;5118993;27;20126;-50
2023/03/03 07:10:25;;;;;;;57.30;9.98;;;2.70;99.90;;;;;;5130677;27;20118;-48
2023/03/03 07:12:51;;;;;;;36.15;10.35;;;2.40;99.90;;;;;;5097519;27;20445;-51
2023/03/03 07:15:34;;;;;;;44.30;9.43;;;2.50;99.90;;;;;;5132816;27;20375;-49
2023/03/03 07:18:01;;;;;;;49.22;9.27;;;2.50;99.90;;;;;;5103070;27;20043;-49
2023/03/03 07:20:35;;;;;;;31.80;8.77;;;2.60;99.90;;;;;;5131668;27;20035;-49
2023/03/03 07:23:22;;;;;;;49.08;8.85;;;2.70;99.90;;;;;;5119122;27;20082;-50
2023/03/03 07:25:48;;;;;;;45.78;9.00;;;2.50;99.90;;;;;;5132801;27;20078;-49
2023/03/03 07:28:23;;;;;;;56.92;8.60;;;2.70;99.90;;;;;;5133274;27;20534;-48
2023/03/03 07:30:50;;;;;;;30.88;8.38;;;2.50;99.90;;;;;;5128229;27;20130;-47
2023/03/03 07:33:39;;;;;;;34.15;8.32;;;3.10;99.90;;;;;;5107472;27;20035;-48
2023/03/03 07:36:19;;;;;;;50.53;7.95;;;2.40;99.90;;;;;;5131637;27;20425;-50
2023/03/03 07:38:53;;;;;;;53.20;8.48;;;2.60;99.90;;;;;;5131239;27;20112;-47
2023/03/03 07:41:19;;;;;;;;;;;2.60;99.90;;;;;;5133085;27;20512;-49
2023/03/03 07:43:53;;;;;;;35.90;7.95;;;3.30;99.90;;;;;;5097747;27;20348;-49
2023/03/03 07:46:46;;;;;;;35.05;7.53;;;2.50;99.90;;;;;;5101930;28;20477;-48
2023/03/03 07:49:22;;;;;;;59.00;8.30;;;2.40;99.90;;;;;;5104130;27;20043;-49
2023/03/03 07:51:53;;;;;;;84.18;9.88;;;2.40;99.90;;;;;;5098918;27;20040;-47
2023/03/03 07:54:37;;;;;;;45.83;8.52;;;2.60;99.90;;;;;;5100566;27;20112;-49
2023/03/03 07:57:20;;;;;;;42.17;8.55;;;2.70;99.90;;;;;;5101417;27;20039;-50
2023/03/03 07:59:47;;;;;;;39.63;7.83;;;2.50;99.90;;;;;;5115661;27;20051;-49
2023/03/03 08:02:40;;;;;;;47.38;8.70;;;2.70;99.90;;;;;;5101207;27;20373;-48
2023/03/03 08:05:25;;;;;;;53.92;8.75;;;2.80;99.90;;;;;;5099651;27;20078;-49
2023/03/03 08:07:51;;;;;;;73.10;9.52;;;2.70;99.90;;;;;;5100715;27;20506;-49
2023/03/03 08:10:47;;;;;;;57.85;8.65;;;2.60;99.90;;;;;;5100571;27;20038;-51
2023/03/03 08:13:32;;;;;;;47.88;9.07;;;2.90;99.90;;;;;;5084316;27;20047;-50
2023/03/03 08:16:02;;;;;;;85.43;9.85;;;2.80;99.90;;;;;;5101173;27;20042;-46
2023/03/03 08:18:43;;;;;;;44.33;8.40;;;2.80;99.90;;;;;;5084939;28;20104;-48
2023/03/03 08:21:18;;;;;;;64.80;9.50;;;2.60;99.90;;;;;;5098795;27;20163;-47
2023/03/03 08:23:44;;;;;;;32.28;8.32;;;2.70;99.90;;;;;;5085414;28;20070;-47
2023/03/03 08:26:12;;;;;;;38.63;9.32;;;2.60;99.90;;;;;;5097307;27;20502;-48
2023/03/03 08:28:38;;;;;;;56.05;8.77;;;2.60;99.90;;;;;;5099072;27;20429;-47
2023/03/03 08:31:04;;;;;;;42.03;8.55;;;2.90;99.90;;;;;;5098910;27;20115;-49
2023/03/03 08:33:31;;;;;;;25.50;8.10;;;2.80;99.90;;;;;;5099195;27;20118;-50
2023/03/03 08:35:57;;;;;;;32.13;8.32;;;2.70;99.90;;;;;;5098559;27;21820;-51
2023/03/03 08:38:22;;;;;;;39.13;7.80;;;3.00;99.90;;;;;;5097171;27;20035;-50
2023/03/03 08:40:49;;;;;;;24.75;7.68;;;2.90;99.90;;;;;;5101577;27;20040;-51
2023/03/03 08:43:17;;;;;;;41.25;8.35;;;3.00;99.90;;;;;;5097260;27;20040;-48
2023/03/03 08:45:48;;;;;;;38.45;9.02;;;3.10;99.90;;;;;;5099397;28;20556;-45
2023/03/03 08:48:14;;;;;;;32.55;9.10;;;2.90;99.90;;;;;;5097242;28;20032;-50
2023/03/03 08:50:40;;;;;;;30.42;9.00;;;3.30;99.90;;;;;;5099606;27;20031;-49
2023/03/03 08:53:06;;;;;;;50.95;9.27;;;3.10;99.90;;;;;;5098649;28;20031;-50
2023/03/03 08:55:32;;;;;;;22.08;8.15;;;3.30;99.90;;;;;;5099028;28;20044;-50
2023/03/03 08:57:58;;;;;;;28.05;8.25;;;3.40;99.90;;;;;;5072064;28;20039;-52
2023/03/03 09:00:25;;;;;;;29.05;9.18;;;3.40;99.90;;;;;;5103015;28;20039;-47
2023/03/03 09:02:51;;;;;;;24.45;8.45;;;3.30;99.90;;;;;;5098508;28;20058;-47
2023/03/03 09:05:18;;;;;;;24.60;8.48;;;3.40;99.90;;;;;;5094674;28;20031;-49
2023/03/03 09:07:46;;;;;;;32.03;8.98;;;3.50;99.90;;;;;;5099553;28;20466;-50
2023/03/03 09:10:15;;;;;;;47.30;9.40;;;3.50;99.90;;;;;;5099644;28;20028;-50
2023/03/03 09:12:43;;;;;;;31.33;9.15;;;4.20;99.90;;;;;;5097442;28;20032;-48
2023/03/03 09:15:15;;;;;;;18.42;8.05;;;3.80;99.90;;;;;;5098416;28;20112;-49
2023/03/03 09:17:40;;;;;;;35.25;8.80;;;4.70;99.90;;;;;;5098122;28;20458;-47
2023/03/03 09:20:21;;;;;;;17.05;7.38;;;3.90;99.90;;;;;;5086028;28;20118;-49
2023/03/03 09:22:49;;;;;;;57.95;9.00;;;4.00;99.90;;;;;;5097723;28;20040;-49
2023/03/03 09:25:36;;;;;;;16.60;7.50;;;4.00;99.90;;;;;;5099897;28;20039;-48
2023/03/03 09:28:02;;;;;;;15.68;7.13;;;4.30;99.90;;;;;;5098876;28;20039;-46
2023/03/03 09:30:39;;;;;;;14.50;7.05;;;4.10;99.90;;;;;;5099898;28;20486;-47
2023/03/03 09:33:23;;;;;;;18.20;7.82;;;4.10;99.90;;;;;;5098415;28;20031;-48
2023/03/03 09:35:57;;;;;;;17.00;7.00;;;4.30;99.90;;;;;;5101343;28;20031;-47
2023/03/03 09:38:38;;;;;;;16.67;6.75;;;4.40;99.90;;;;;;5088233;28;20036;-47
2023/03/03 09:41:27;;;;;;;13.57;6.95;;;4.50;99.90;;;;;;5098771;28;20055;-49
2023/03/03 09:44:08;;;;;;;13.88;6.50;;;4.30;99.90;;;;;;5100472;28;20044;-51
2023/03/03 09:46:54;;;;;;;13.00;6.63;;;4.50;99.90;;;;;;5097787;28;20040;-49
2023/03/03 09:49:50;;;;;;;13.65;6.40;;;4.50;99.90;;;;;;5100494;28;20055;-49
2023/03/03 09:52:35;;;;;;;14.32;6.55;;;4.90;99.90;;;;;;5015405;28;20456;-52
2023/03/03 09:55:26;;;;;;;14.10;7.18;;;5.10;99.90;;;;;;5099410;28;20362;-51
2023/03/03 09:58:01;;;;;;;16.38;5.78;;;5.40;99.90;;;;;;5098711;28;20363;-50
2023/03/03 10:00:35;;;;;;;11.50;5.85;;;5.40;99.90;;;;;;5097023;27;20036;-47
2023/03/03 10:03:45;;;;;;;9.52;4.95;;;5.70;99.90;;;;;;5100913;27;20042;-49
2023/03/03 10:06:36;;;;;;;8.10;4.30;;;5.80;99.90;;;;;;5103291;27;20112;-48
2023/03/03 10:09:32;;;;;;;9.18;4.07;;;5.90;99.90;;;;;;5104020;27;20039;-50
2023/03/03 10:12:11;;;;;;;9.02;4.43;;;6.00;99.90;;;;;;5100830;27;20482;-50
2023/03/03 10:14:54;;;;;;;9.45;4.63;;;6.10;99.90;;;;;;5102041;27;20028;-53
2023/03/03 10:17:27;;;;;;;9.52;4.30;;;6.20;99.90;;;;;;5102880;27;20047;-52
2023/03/03 10:20:20;;;;;;;8.45;4.53;;;6.30;99.90;;;;;;5101311;27;20043;-49
2023/03/03 10:22:56;;;;;;;10.93;4.20;;;6.30;99.90;;;;;;5103473;27;20031;-48
2023/03/03 10:25:33;;;;;;;10.20;4.10;;;6.40;99.90;;;;;;5110663;27;20047;-49
2023/03/03 10:28:08;;;;;;;9.57;4.25;;;6.50;99.90;;;;;;5083592;27;20142;-47
2023/03/03 10:30:55;;;;;;;9.63;4.45;;;6.60;99.90;;;;;;5102087;27;20036;-49
2023/03/03 10:33:48;;;;;;;8.05;4.28;;;6.60;99.90;;;;;;5100581;27;20035;-49
2023/03/03 10:36:41;;;;;;;7.82;3.85;;;6.60;99.90;;;;;;5101092;27;20043;-50
2023/03/03 10:39:33;;;;;;;9.43;4.20;;;6.60;99.90;;;;;;5118599;27;20047;-50
2023/03/03 10:42:11;;;;;;;8.77;4.00;;;6.70;99.90;;;;;;5123451;27;20093;-50
2023/03/03 10:45:19;;;;;;;7.60;3.35;;;6.80;99.90;;;;;;5108208;27;20043;-48
2023/03/03 10:48:08;;;;;;;10.60;3.67;;;7.00;99.90;;;;;;5090757;28;20044;-50
2023/03/03 10:51:09;;;;;;;8.43;3.67;;;7.00;99.90;;;;;;5127076;27;20043;-50
2023/03/03 10:53:38;;;;;;;7.93;3.35;;;7.10;99.90;;;;;;5100124;27;20040;-49
2023/03/03 10:56:20;;;;;;;6.85;3.38;;;7.20;99.90;;;;;;5100302;28;20736;-51
2023/03/03 10:59:30;;;;;;;9.88;3.42;;;7.40;99.90;;;;;;5129142;27;20065;-49
2023/03/03 11:02:05;;;;;;;8.85;2.80;;;7.60;99.90;;;;;;5133924;27;20049;-51
2023/03/03 11:04:58;;;;;;;8.25;3.42;;;7.80;99.90;;;;;;5133821;27;20482;-51
2023/03/03 11:07:48;;;;;;;9.57;3.80;;;8.00;99.90;;;;;;5129756;27;20509;-50
2023/03/03 11:10:36;;;;;;;12.35;5.80;;;8.00;99.90;;;;;;5097523;27;20053;-49
2023/03/03 11:13:20;;;;;;;13.80;6.47;;;7.80;99.90;;;;;;5130461;27;20046;-52
2023/03/03 11:15:50;;;;;;;;;;;7.60;99.90;;;;;;5130410;27;20035;-49
2023/03/03 11:18:23;;;;;;;12.75;5.88;;;7.40;99.90;;;;;;5123690;27;19916;-49
2023/03/03 11:21:20;;;;;;;17.33;7.15;;;7.30;99.90;;;;;;5109633;27;20054;-48
2023/03/03 11:24:11;;;;;;;14.85;6.72;;;7.20;99.90;;;;;;5127976;27;20039;-47
2023/03/03 11:27:03;;;;;;;16.75;7.95;;;7.00;99.90;;;;;;5110558;27;20054;-49
2023/03/03 11:29:44;;;;;;;19.00;8.23;;;7.00;99.90;;;;;;5114221;27;20084;-46
2023/03/03 11:32:31;;;;;;;17.42;8.52;;;7.00;99.90;;;;;;5090011;27;20048;-48
2023/03/03 11:35:02;;;;;;;22.45;8.77;;;7.10;99.90;;;;;;5116071;27;20042;-48
2023/03/03 11:37:47;;;;;;;21.90;9.43;;;7.20;99.90;;;;;;5112789;27;20091;-48
2023/03/03 11:40:20;;;;;;;21.98;9.15;;;7.20;99.90;;;;;;5104698;27;20051;-48
2023/03/03 11:43:16;;;;;;;20.48;10.20;;;7.20;99.90;;;;;;5108644;27;20036;-48
2023/03/03 11:45:53;;;;;;;17.15;8.18;;;7.50;99.90;;;;;;5115308;27;20473;-51
2023/03/03 11:48:37;;;;;;;19.00;9.15;;;7.80;99.90;;;;;;5114808;27;20047;-49
2023/03/03 11:51:10;;;;;;;25.85;12.52;;;7.90;99.90;;;;;;5102362;27;20084;-48
2023/03/03 11:54:13;;;;;;;26.60;12.00;;;7.90;99.90;;;;;;5117977;27;20038;-53
2023/03/03 11:56:45;;;;;;;19.17;9.25;;;7.90;99.90;;;;;;5069190;28;20127;-48
2023/03/03 11:59:32;;;;;;;14.60;5.63;;;7.80;99.90;;;;;;5118997;27;20959;-46
2023/03/03 12:02:19;;;;;;;12.85;4.45;;;7.80;99.90;;;;;;5104855;27;20035;-48
2023/03/03 12:04:58;;;;;;;10.88;4.40;;;7.70;99.90;;;;;;5118908;27;20039;-50
2023/03/03 12:07:43;;;;;;;6.45;2.95;;;7.70;99.90;;;;;;5116102;27;20063;-48
2023/03/03 12:10:27;;;;;;;6.30;2.60;;;7.60;99.90;;;;;;5113047;27;20051;-49
2023/03/03 12:13:02;;;;;;;8.77;3.20;;;7.60;99.90;;;;;;5121103;27;20383;-52
2023/03/03 12:15:30;;;;;;;10.40;3.60;;;7.50;99.90;;;;;;5118882;27;20403;-49
2023/03/03 12:18:06;;;;;;;9.88;4.25;;;7.50;99.90;;;;;;5118402;27;20043;-50
2023/03/03 12:20:53;;;;;;;12.20;4.65;;;7.50;99.90;;;;;;5119176;27;20390;-49
2023/03/03 12:23:37;;;;;;;18.63;8.38;;;7.50;99.90;;;;;;5117165;27;20371;-48
2023/03/03 12:26:34;;;;;;;17.70;7.30;;;7.40;99.90;;;;;;5118071;27;20039;-48
2023/03/03 12:29:05;;;;;;;15.48;7.03;;;7.40;99.90;;;;;;5088121;27;20126;-48
2023/03/03 12:31:58;;;;;;;17.05;6.70;;;7.30;99.90;;;;;;5119068;27;20119;-51
2023/03/03 12:34:42;;;;;;;13.68;6.32;;;7.30;99.90;;;;;;5106161;27;20503;-48
2023/03/03 12:37:23;;;;;;;15.30;6.65;;;7.20;99.90;;;;;;5114719;27;20043;-52
2023/03/03 12:40:02;;;;;;;15.63;7.38;;;7.20;99.90;;;;;;5108031;27;20391;-50
2023/03/03 12:42:47;;;;;;;19.25;8.50;;;7.20;99.90;;;;;;5112571;27;20035;-49
2023/03/03 12:45:52;;;;;;;18.90;8.18;;;7.10;99.90;;;;;;5116411;27;20036;-51
2023/03/03 12:48:39;;;;;;;14.05;7.07;;;7.20;99.90;;;;;;5121123;27;20059;-48
2023/03/03 12:51:41;;;;;;;14.77;6.88;;;7.20;99.90;;;;;;5087183;28;20464;-49
2023/03/03 12:54:38;;;;;;;15.30;7.25;;;7.20;99.90;;;;;;5129579;27;20058;-47
2023/03/03 12:57:09;;;;;;;14.23;6.68;;;7.30;99.90;;;;;;5125619;27;20126;-50
2023/03/03 13:00:05;;;;;;;14.63;6.38;;;7.30;99.90;;;;;;5125702;27;20382;-48
2023/03/03 13:02:40;;;;;;;9.60;3.40;;;7.30;99.90;;;;;;5089442;28;20054;-52
2023/03/03 13:05:13;;;;;;;8.13;2.30;;;7.30;99.90;;;;;;5129704;28;20081;-48
2023/03/03 13:08:01;;;;;;;7.82;2.08;;;7.40;99.90;;;;;;5128762;28;20048;-50
2023/03/03 13:10:41;;;;;;;5.88;2.00;;;7.40;99.90;;;;;;5130782;28;20069;-51
2023/03/03 13:13:28;;;;;;;4.20;1.70;;;7.50;99.90;;;;;;5128574;28;20114;-48
2023/03/03 13:16:00;;;;;;;6.10;1.50;;;7.50;99.90;;;;;;5129040;28;20046;-47